createdAt,value
2019-04-28T00:00:57.577Z,14.33
2019-04-28T00:03:27.012Z,16.47
2019-04-28T00:05:56.438Z,15.40
2019-04-28T00:08:25.864Z,15.93
2019-04-28T00:10:55.312Z,13.87
2019-04-28T00:13:24.999Z,14.47
2019-04-28T00:15:54.738Z,15.53
2019-04-28T00:18:24.971Z,11.40
2019-04-28T00:21:28.398Z,9.30
2019-04-28T00:24:12.682Z,12.57
2019-04-28T00:26:54.878Z,12.50
2019-04-28T00:29:37.319Z,11.53
2019-04-28T00:31:55.618Z,11.70
2019-04-28T00:34:25.243Z,13.97
2019-04-28T00:37:16.451Z,11.47
2019-04-28T00:39:46.054Z,9.60
2019-04-28T00:42:15.483Z,13.60
2019-04-28T00:44:44.914Z,12.33
2019-04-28T00:47:14.346Z,13.53
2019-04-28T00:49:46.729Z,13.63
2019-04-28T00:52:17.834Z,14.47
2019-04-28T00:54:48.688Z,12.90
2019-04-28T00:57:20.889Z,12.97
2019-04-28T00:59:57.682Z,12.67
2019-04-28T01:02:31.204Z,14.50
2019-04-28T01:05:01.786Z,14.03
2019-04-28T01:07:33.127Z,14.90
2019-04-28T01:10:03.061Z,10.87
2019-04-28T01:12:32.487Z,14.73
2019-04-28T01:15:04.684Z,13.83
2019-04-28T01:17:57.496Z,15.40
2019-04-28T01:20:27.234Z,9.80
2019-04-28T01:22:56.750Z,12.80
2019-04-28T01:25:26.230Z,10.67
2019-04-28T01:28:00.200Z,11.20
2019-04-28T01:31:06.971Z,8.07
2019-04-28T01:33:55.395Z,12.23
2019-04-28T01:36:25.013Z,12.57
2019-04-28T01:38:54.387Z,10.90
2019-04-28T01:41:23.815Z,10.00
2019-04-28T01:43:53.173Z,9.17
2019-04-28T01:46:22.615Z,7.70
2019-04-28T01:48:52.022Z,10.23
2019-04-28T01:51:21.358Z,11.73
2019-04-28T01:53:50.810Z,10.37
2019-04-28T01:56:20.505Z,11.57
2019-04-28T01:58:51.646Z,11.93
2019-04-28T02:01:21.367Z,10.27
2019-04-28T02:03:50.722Z,12.80
2019-04-28T02:06:20.182Z,13.17
2019-04-28T02:08:51.252Z,13.67
2019-04-28T02:11:20.862Z,13.20
2019-04-28T02:13:50.278Z,12.40
2019-04-28T02:16:19.732Z,10.70
2019-04-28T02:18:49.707Z,11.70
2019-04-28T02:21:33.667Z,9.13
2019-04-28T02:24:20.735Z,8.30
2019-04-28T02:26:52.640Z,11.73
2019-04-28T02:29:21.395Z,11.57
2019-04-28T02:31:51.174Z,9.23
2019-04-28T02:34:21.294Z,8.17
2019-04-28T02:36:53.765Z,5.27
2019-04-28T02:39:22.830Z,13.07
2019-04-28T02:41:52.372Z,9.77
2019-04-28T02:44:23.530Z,9.80
2019-04-28T02:46:53.050Z,11.43
2019-04-28T02:49:36.759Z,11.13
2019-04-28T02:52:12.937Z,13.97
2019-04-28T02:54:42.445Z,10.93
2019-04-28T02:57:11.956Z,12.77
2019-04-28T02:59:44.840Z,10.17
2019-04-28T03:02:12.655Z,7.93
2019-04-28T03:04:42.287Z,11.57
2019-04-28T03:07:14.666Z,10.90
2019-04-28T03:09:42.852Z,12.53
2019-04-28T03:12:12.295Z,10.23
2019-04-28T03:14:44.002Z,9.40
2019-04-28T03:17:12.811Z,9.73
2019-04-28T03:19:42.226Z,10.67
2019-04-28T03:22:11.780Z,9.70
2019-04-28T03:24:41.856Z,9.53
2019-04-28T03:27:22.227Z,9.47
2019-04-28T03:30:06.507Z,9.70
2019-04-28T03:32:52.584Z,8.63
2019-04-28T03:35:14.448Z,8.97
2019-04-28T03:37:43.995Z,8.37
2019-04-28T03:40:13.445Z,8.00
2019-04-28T03:42:42.914Z,8.20
2019-04-28T03:45:21.105Z,7.13
2019-04-28T03:47:51.032Z,7.07
2019-04-28T03:50:20.493Z,6.53
2019-04-28T03:52:51.177Z,7.13
2019-04-28T03:55:21.364Z,4.70
2019-04-28T03:57:51.084Z,7.57
2019-04-28T04:00:22.004Z,6.70
2019-04-28T04:02:51.781Z,5.47
2019-04-28T04:05:21.254Z,7.17
2019-04-28T04:07:50.842Z,7.20
2019-04-28T04:10:50.467Z,6.10
2019-04-28T04:13:25.531Z,6.10
2019-04-28T04:16:14.016Z,8.20
2019-04-28T04:18:46.476Z,6.17
2019-04-28T04:21:16.037Z,6.10
2019-04-28T04:23:45.420Z,6.27
2019-04-28T04:26:14.935Z,7.27
2019-04-28T04:28:44.275Z,6.83
2019-04-28T04:31:13.767Z,6.73
2019-04-28T04:33:43.195Z,5.97
2019-04-28T04:36:12.685Z,5.93
2019-04-28T04:38:46.106Z,6.47
2019-04-28T04:41:13.351Z,6.80
2019-04-28T04:43:42.759Z,6.70
2019-04-28T04:46:21.908Z,6.40
2019-04-28T04:48:50.825Z,5.90
2019-04-28T04:51:21.538Z,6.00
2019-04-28T04:53:51.741Z,6.33
2019-04-28T04:56:21.685Z,6.13
2019-04-28T04:58:51.662Z,5.70
2019-04-28T05:01:43.021Z,6.37
2019-04-28T05:04:25.508Z,5.40
2019-04-28T05:06:54.930Z,5.67
2019-04-28T05:09:24.278Z,5.97
2019-04-28T05:11:53.962Z,6.30
2019-04-28T05:14:23.395Z,6.07
2019-04-28T05:16:52.866Z,5.67
2019-04-28T05:19:22.369Z,6.13
2019-04-28T05:21:51.966Z,5.50
2019-04-28T05:24:34.553Z,4.77
2019-04-28T05:27:04.767Z,4.80
2019-04-28T05:29:34.639Z,4.37
2019-04-28T05:32:04.174Z,5.63
2019-04-28T05:34:33.606Z,5.37
2019-04-28T05:37:03.066Z,5.67
2019-04-28T05:39:32.546Z,5.47
2019-04-28T05:42:01.967Z,5.73
2019-04-28T05:44:32.156Z,5.17
2019-04-28T05:47:01.813Z,5.10
2019-04-28T05:50:00.205Z,5.40
2019-04-28T05:52:56.756Z,5.00
2019-04-28T05:55:32.879Z,5.17
2019-04-28T05:58:19.935Z,5.10
2019-04-28T06:01:00.334Z,5.97
2019-04-28T06:03:30.531Z,5.70
2019-04-28T06:06:00.128Z,5.93
2019-04-28T06:08:44.767Z,5.73
2019-04-28T06:11:34.719Z,6.67
2019-04-28T06:14:04.426Z,4.93
2019-04-28T06:16:33.985Z,6.13
2019-04-28T06:19:03.407Z,5.47
2019-04-28T06:21:32.767Z,6.50
2019-04-28T06:24:02.187Z,6.73
2019-04-28T06:26:31.612Z,7.27
2019-04-28T06:29:01.052Z,6.27
2019-04-28T06:31:30.606Z,6.90
2019-04-28T06:33:59.979Z,5.40
2019-04-28T06:36:29.353Z,7.13
2019-04-28T06:38:58.887Z,7.07
2019-04-28T06:41:28.675Z,5.77
2019-04-28T06:43:58.100Z,7.70
2019-04-28T06:46:27.494Z,5.67
2019-04-28T06:48:56.962Z,8.43
2019-04-28T06:51:26.411Z,6.87
2019-04-28T06:53:56.053Z,10.60
2019-04-28T06:56:25.648Z,8.97
2019-04-28T06:58:59.336Z,8.63
2019-04-28T07:01:26.238Z,11.40
2019-04-28T07:03:55.667Z,10.77
2019-04-28T07:06:25.086Z,9.67
2019-04-28T07:08:54.441Z,9.93
2019-04-28T07:11:23.902Z,8.03
2019-04-28T07:13:53.389Z,9.10
2019-04-28T07:16:22.898Z,9.13
2019-04-28T07:18:52.314Z,9.53
2019-04-28T07:21:35.503Z,9.80
2019-04-28T07:24:04.978Z,8.20
2019-04-28T07:26:34.451Z,8.53
2019-04-28T07:29:03.990Z,8.63
2019-04-28T07:31:33.501Z,9.73
2019-04-28T07:34:03.131Z,9.83
2019-04-28T07:36:33.208Z,7.87
2019-04-28T07:39:03.085Z,8.20
2019-04-28T07:41:32.510Z,9.20
2019-04-28T07:44:02.039Z,7.10
2019-04-28T07:46:31.517Z,7.67
2019-04-28T07:49:01.043Z,6.33
2019-04-28T07:51:41.085Z,6.37
2019-04-28T07:54:12.049Z,5.43
2019-04-28T07:56:41.473Z,7.20
2019-04-28T07:59:11.028Z,6.83
2019-04-28T08:01:40.520Z,7.70
2019-04-28T08:04:10.037Z,7.87
2019-04-28T08:06:39.506Z,7.77
2019-04-28T08:09:12.887Z,6.47
2019-04-28T08:11:42.582Z,6.47
2019-04-28T08:14:12.215Z,6.87
2019-04-28T08:16:41.860Z,7.70
2019-04-28T08:19:11.328Z,6.90
2019-04-28T08:21:40.755Z,6.13
2019-04-28T08:24:10.482Z,7.27
2019-04-28T08:26:39.988Z,6.73
2019-04-28T08:29:09.636Z,7.00
2019-04-28T08:32:03.895Z,5.83
2019-04-28T08:34:33.379Z,5.63
2019-04-28T08:37:02.827Z,5.93
2019-04-28T08:39:32.462Z,5.90
2019-04-28T08:42:01.948Z,7.27
2019-04-28T08:44:31.618Z,6.97
2019-04-28T08:47:01.555Z,5.90
2019-04-28T08:49:30.977Z,7.03
2019-04-28T08:52:00.330Z,6.10
2019-04-28T08:54:30.063Z,5.23
2019-04-28T08:56:59.534Z,7.60
2019-04-28T08:59:29.040Z,6.93
2019-04-28T09:01:58.518Z,6.17
2019-04-28T09:04:28.020Z,8.10
2019-04-28T09:06:57.470Z,7.53
2019-04-28T09:09:27.171Z,6.50
2019-04-28T09:11:56.948Z,6.63
2019-04-28T09:14:26.665Z,6.53
2019-04-28T09:16:56.282Z,6.63
2019-04-28T09:19:25.845Z,7.10
2019-04-28T09:21:55.387Z,7.03
2019-04-28T09:24:24.907Z,6.37
2019-04-28T09:26:54.495Z,6.20
2019-04-28T09:29:24.110Z,7.07
2019-04-28T09:31:53.695Z,5.53
2019-04-28T09:34:28.631Z,6.23
2019-04-28T09:36:54.302Z,6.53
2019-04-28T09:39:44.146Z,6.70
2019-04-28T09:42:31.226Z,6.27
2019-04-28T09:45:01.736Z,6.63
2019-04-28T09:47:31.209Z,6.23
2019-04-28T09:50:00.668Z,6.57
2019-04-28T09:52:30.180Z,6.30
2019-04-28T09:54:59.690Z,6.47
2019-04-28T09:57:29.198Z,6.47
2019-04-28T09:59:58.646Z,9.53
2019-04-28T10:02:28.283Z,6.77
2019-04-28T10:04:57.907Z,5.20
2019-04-28T10:07:27.342Z,5.50
2019-04-28T10:10:15.862Z,5.37
2019-04-28T10:12:45.399Z,5.83
2019-04-28T10:15:15.355Z,5.30
2019-04-28T10:17:44.762Z,6.67
2019-04-28T10:20:14.498Z,6.17
2019-04-28T10:22:43.977Z,5.10
2019-04-28T10:25:13.594Z,5.33
2019-04-28T10:27:43.186Z,6.70
2019-04-28T10:30:13.713Z,7.13
2019-04-28T10:32:45.039Z,8.50
2019-04-28T10:35:14.781Z,6.80
2019-04-28T10:37:45.650Z,6.47
2019-04-28T10:41:15.347Z,6.43
2019-04-28T10:43:44.764Z,5.93
2019-04-28T10:46:14.234Z,8.13
2019-04-28T10:48:43.923Z,5.90
2019-04-28T10:51:13.288Z,6.33
2019-04-28T10:53:42.787Z,6.87
2019-04-28T10:56:12.246Z,6.87
2019-04-28T10:58:44.122Z,6.70
2019-04-28T11:01:13.815Z,6.47
2019-04-28T11:03:45.190Z,7.57
2019-04-28T11:06:14.640Z,7.43
2019-04-28T11:08:54.130Z,7.67
2019-04-28T11:11:28.149Z,15.73
2019-04-28T11:13:57.606Z,8.80
2019-04-28T11:16:33.779Z,9.80
2019-04-28T11:19:03.439Z,8.07
2019-04-28T11:21:32.839Z,7.30
2019-04-28T11:24:02.370Z,10.27
2019-04-28T11:26:31.737Z,6.87
2019-04-28T11:29:01.202Z,8.63
2019-04-28T11:31:33.418Z,10.07
2019-04-28T11:34:12.572Z,8.10
2019-04-28T11:36:41.975Z,7.50
2019-04-28T11:39:13.918Z,6.70
2019-04-28T11:41:43.395Z,6.67
2019-04-28T11:44:13.246Z,6.90
2019-04-28T11:46:42.934Z,8.83
2019-04-28T11:49:15.726Z,9.57
2019-04-28T11:51:45.371Z,8.27
2019-04-28T11:54:14.858Z,8.90
2019-04-28T11:56:44.374Z,10.63
2019-04-28T11:59:13.907Z,8.07
2019-04-28T12:01:45.662Z,9.50
2019-04-28T12:04:17.250Z,6.33
2019-04-28T12:06:47.713Z,5.90
2019-04-28T12:09:37.347Z,7.50
2019-04-28T12:12:10.962Z,6.93
2019-04-28T12:15:17.988Z,5.70
2019-04-28T12:18:08.854Z,7.23
2019-04-28T12:20:39.008Z,10.17
2019-04-28T12:23:09.837Z,7.80
2019-04-28T12:25:39.354Z,11.80
2019-04-28T12:28:08.825Z,10.30
2019-04-28T12:30:38.379Z,11.20
2019-04-28T12:33:07.864Z,7.43
2019-04-28T12:35:47.254Z,6.20
2019-04-28T12:38:08.418Z,7.97
2019-04-28T12:40:37.925Z,7.33
2019-04-28T12:43:07.489Z,7.07
2019-04-28T12:45:37.196Z,7.10
2019-04-28T12:48:06.858Z,6.90
2019-04-28T12:50:41.788Z,6.03
2019-04-28T12:53:11.236Z,5.97
2019-04-28T12:55:40.642Z,6.13
2019-04-28T12:58:10.083Z,5.77
2019-04-28T13:00:59.914Z,7.00
2019-04-28T13:03:45.307Z,5.00
2019-04-28T13:06:16.625Z,7.10
2019-04-28T13:08:46.112Z,6.67
2019-04-28T13:11:15.558Z,6.03
2019-04-28T13:13:46.904Z,5.27
2019-04-28T13:16:16.289Z,6.10
2019-04-28T13:18:45.750Z,4.50
2019-04-28T13:21:15.246Z,5.37
2019-04-28T13:23:44.724Z,8.67
2019-04-28T13:26:14.272Z,5.43
2019-04-28T13:28:43.720Z,5.53
2019-04-28T13:31:13.689Z,6.07
2019-04-28T13:33:55.642Z,5.93
2019-04-28T13:36:15.323Z,5.43
2019-04-28T13:38:45.105Z,5.70
2019-04-28T13:41:14.711Z,5.33
2019-04-28T13:43:44.283Z,5.60
2019-04-28T13:46:14.251Z,6.53
2019-04-28T13:48:44.167Z,4.67
2019-04-28T13:51:14.046Z,5.23
2019-04-28T13:53:45.193Z,5.10
2019-04-28T13:56:14.936Z,4.50
2019-04-28T13:59:05.115Z,3.87
2019-04-28T14:02:02.886Z,5.33
2019-04-28T14:04:50.915Z,6.00
2019-04-28T14:07:20.355Z,6.30
2019-04-28T14:09:49.877Z,7.00
2019-04-28T14:12:19.329Z,6.70
2019-04-28T14:14:48.896Z,6.90
2019-04-28T14:17:18.303Z,5.50
2019-04-28T14:19:47.860Z,5.77
2019-04-28T14:22:17.214Z,6.33
2019-04-28T14:24:46.794Z,7.50
2019-04-28T14:27:16.276Z,6.43
2019-04-28T14:29:45.898Z,7.90
2019-04-28T14:32:15.406Z,7.37
2019-04-28T14:34:45.013Z,7.87
2019-04-28T14:37:14.497Z,7.67
2019-04-28T14:39:43.936Z,7.37
2019-04-28T14:42:13.386Z,8.80
2019-04-28T14:44:42.932Z,8.13
2019-04-28T14:47:12.486Z,8.67
2019-04-28T14:49:42.168Z,8.87
2019-04-28T14:52:11.656Z,8.67
2019-04-28T14:54:41.138Z,8.87
2019-04-28T14:57:13.794Z,9.90
2019-04-28T14:59:43.292Z,9.13
2019-04-28T15:02:20.108Z,9.40
2019-04-28T15:05:17.705Z,9.13
2019-04-28T15:07:57.562Z,7.20
2019-04-28T15:10:46.077Z,7.30
2019-04-28T15:13:16.390Z,7.43
2019-04-28T15:15:45.894Z,8.60
2019-04-28T15:18:15.353Z,9.13
2019-04-28T15:20:44.841Z,9.53
2019-04-28T15:23:14.286Z,9.33
2019-04-28T15:25:43.664Z,9.27
2019-04-28T15:28:13.214Z,9.40
2019-04-28T15:30:42.635Z,8.90
2019-04-28T15:33:12.502Z,9.13
2019-04-28T15:35:41.959Z,10.57
2019-04-28T15:38:11.424Z,10.83
2019-04-28T15:40:40.770Z,10.43
2019-04-28T15:43:10.292Z,10.87
2019-04-28T15:45:39.959Z,11.00
2019-04-28T15:48:09.464Z,9.73
2019-04-28T15:50:39.162Z,10.13
2019-04-28T15:53:08.622Z,11.63
2019-04-28T15:55:44.918Z,10.70
2019-04-28T15:58:31.336Z,10.70
2019-04-28T16:01:00.763Z,11.60
2019-04-28T16:03:30.213Z,11.03
2019-04-28T16:06:00.161Z,9.60
2019-04-28T16:08:29.974Z,14.97
2019-04-28T16:10:59.450Z,9.70
2019-04-28T16:13:28.976Z,11.20
2019-04-28T16:15:58.452Z,11.67
2019-04-28T16:18:27.850Z,10.80
2019-04-28T16:20:57.332Z,11.90
2019-04-28T16:23:26.804Z,11.57
2019-04-28T16:25:56.305Z,10.00
2019-04-28T16:28:25.859Z,11.00
2019-04-28T16:30:55.281Z,9.40
2019-04-28T16:33:24.660Z,9.47
2019-04-28T16:35:54.188Z,9.70
2019-04-28T16:38:23.527Z,8.33
2019-04-28T16:40:56.599Z,9.73
2019-04-28T16:43:31.538Z,10.33
2019-04-28T16:46:01.021Z,11.13
2019-04-28T16:48:30.500Z,10.57
2019-04-28T16:51:00.145Z,9.97
2019-04-28T16:53:29.958Z,11.10
2019-04-28T16:56:18.350Z,10.67
2019-04-28T16:59:09.693Z,11.00
2019-04-28T17:02:10.055Z,9.60
2019-04-28T17:04:39.447Z,9.67
2019-04-28T17:07:08.996Z,11.23
2019-04-28T17:09:38.393Z,11.67
2019-04-28T17:12:08.234Z,11.50
2019-04-28T17:14:37.670Z,10.17
2019-04-28T17:17:07.358Z,12.67
2019-04-28T17:19:36.809Z,10.93
2019-04-28T17:22:07.034Z,11.53
2019-04-28T17:24:36.606Z,13.07
2019-04-28T17:27:06.425Z,12.70
2019-04-28T17:29:37.883Z,11.07
2019-04-28T17:32:07.700Z,10.23
2019-04-28T17:34:37.358Z,11.00
2019-04-28T17:37:07.454Z,12.70
2019-04-28T17:39:39.289Z,12.83
2019-04-28T17:42:13.127Z,13.23
2019-04-28T17:44:43.030Z,11.60
2019-04-28T17:47:15.114Z,14.93
2019-04-28T17:49:45.015Z,15.53
2019-04-28T17:52:14.763Z,12.73
2019-04-28T17:54:45.097Z,15.40
2019-04-28T17:57:14.723Z,14.33
2019-04-28T17:59:45.308Z,15.80
2019-04-28T18:02:32.662Z,13.90
2019-04-28T18:05:21.358Z,14.83
2019-04-28T18:07:56.483Z,19.03
2019-04-28T18:10:26.119Z,19.10
2019-04-28T18:13:00.906Z,17.90
2019-04-28T18:15:45.664Z,15.67
2019-04-28T18:18:24.231Z,20.67
2019-04-28T18:20:53.683Z,20.90
2019-04-28T18:23:23.766Z,17.50
2019-04-28T18:25:53.214Z,20.20
2019-04-28T18:28:22.711Z,13.47
2019-04-28T18:31:03.190Z,15.80
2019-04-28T18:33:46.170Z,16.37
2019-04-28T18:36:20.886Z,15.63
2019-04-28T18:38:58.606Z,15.40
2019-04-28T18:41:49.843Z,16.10
2019-04-28T18:44:20.903Z,16.53
2019-04-28T18:46:50.437Z,13.90
2019-04-28T18:49:19.980Z,17.00
2019-04-28T18:51:49.675Z,17.87
2019-04-28T18:54:22.190Z,18.43
2019-04-28T18:56:51.888Z,17.50
2019-04-28T18:59:24.190Z,16.23
2019-04-28T19:02:09.187Z,20.43
2019-04-28T19:04:38.659Z,21.77
2019-04-28T19:07:10.041Z,25.10
2019-04-28T19:10:01.378Z,23.97
2019-04-28T19:12:41.335Z,21.87
2019-04-28T19:15:45.356Z,23.40
2019-04-28T19:18:21.504Z,24.87
2019-04-28T19:20:50.971Z,26.13
2019-04-28T19:23:20.406Z,20.90
2019-04-28T19:25:49.831Z,25.63
2019-04-28T19:28:19.215Z,25.57
2019-04-28T19:30:48.671Z,26.70
2019-04-28T19:33:18.147Z,27.20
2019-04-28T19:35:47.594Z,26.77
2019-04-28T19:38:17.150Z,25.27
2019-04-28T19:40:46.687Z,26.67
2019-04-28T19:43:16.308Z,25.33
2019-04-28T19:45:47.797Z,25.60
2019-04-28T19:48:17.327Z,28.13
2019-04-28T19:50:46.758Z,28.47
2019-04-28T19:53:16.206Z,27.70
2019-04-28T19:55:52.078Z,26.47
2019-04-28T19:58:49.719Z,28.17
2019-04-28T20:01:25.050Z,27.27
2019-04-28T20:03:54.450Z,25.10
2019-04-28T20:06:23.917Z,23.00
2019-04-28T20:08:53.585Z,22.23
2019-04-28T20:11:22.912Z,23.10
2019-04-28T20:13:52.485Z,23.63
2019-04-28T20:16:21.904Z,23.70
2019-04-28T20:18:51.479Z,22.70
2019-04-28T20:21:20.905Z,20.60
2019-04-28T20:23:50.382Z,20.83
2019-04-28T20:26:19.836Z,22.97
2019-04-28T20:28:49.186Z,24.10
2019-04-28T20:31:18.878Z,24.77
2019-04-28T20:33:48.307Z,23.80
2019-04-28T20:36:23.365Z,25.53
2019-04-28T20:38:56.160Z,20.53
2019-04-28T20:41:27.888Z,22.30
2019-04-28T20:44:01.062Z,18.83
2019-04-28T20:46:30.454Z,20.17
2019-04-28T20:48:59.903Z,27.47
2019-04-28T20:51:29.552Z,22.47
2019-04-28T20:53:59.030Z,19.27
2019-04-28T20:56:28.371Z,14.77
2019-04-28T20:58:57.847Z,22.23
2019-04-28T21:01:27.322Z,22.50
2019-04-28T21:03:56.767Z,16.97
2019-04-28T21:06:26.211Z,18.53
2019-04-28T21:08:55.587Z,23.10
2019-04-28T21:11:25.145Z,21.13
2019-04-28T21:13:54.618Z,20.87
2019-04-28T21:16:24.060Z,20.47
2019-04-28T21:18:53.540Z,20.93
2019-04-28T21:21:23.113Z,19.67
2019-04-28T21:23:52.516Z,19.83
2019-04-28T21:26:21.973Z,19.67
2019-04-28T21:28:51.334Z,18.77
2019-04-28T21:31:20.717Z,18.80
2019-04-28T21:33:50.174Z,19.00
2019-04-28T21:36:19.510Z,17.83
2019-04-28T21:38:50.630Z,17.63
2019-04-28T21:41:20.074Z,18.50
2019-04-28T21:44:05.736Z,19.03
2019-04-28T21:46:59.969Z,18.33
2019-04-28T21:49:38.243Z,18.47
2019-04-28T21:52:07.811Z,18.53
2019-04-28T21:54:37.234Z,18.57
2019-04-28T21:57:06.646Z,18.70
2019-04-28T21:59:36.050Z,19.47
2019-04-28T22:02:05.629Z,19.03
2019-04-28T22:04:35.159Z,20.00
2019-04-28T22:07:04.745Z,19.80
2019-04-28T22:09:34.348Z,20.43
2019-04-28T22:12:03.786Z,22.27
2019-04-28T22:14:33.364Z,20.63
2019-04-28T22:17:02.822Z,21.43
2019-04-28T22:19:32.314Z,22.30
2019-04-28T22:22:01.882Z,22.17
2019-04-28T22:24:39.390Z,22.17
2019-04-28T22:27:11.235Z,22.43
2019-04-28T22:29:40.656Z,22.73
2019-04-28T22:32:10.231Z,23.33
2019-04-28T22:34:39.951Z,20.90
2019-04-28T22:37:09.370Z,24.03
2019-04-28T22:39:38.946Z,23.57
2019-04-28T22:42:08.577Z,22.67
2019-04-28T22:44:38.164Z,21.67
2019-04-28T22:47:07.622Z,22.10
2019-04-28T22:49:37.175Z,23.23
2019-04-28T22:52:06.599Z,22.57
2019-04-28T22:54:55.030Z,21.87
2019-04-28T22:57:42.091Z,22.17
2019-04-28T23:00:39.996Z,20.80
2019-04-28T23:03:12.165Z,22.37
2019-04-28T23:05:41.757Z,22.37
2019-04-28T23:08:11.270Z,22.90
2019-04-28T23:10:40.798Z,22.77
2019-04-28T23:13:10.218Z,21.90
2019-04-28T23:15:39.642Z,23.73
2019-04-28T23:18:09.022Z,23.40
2019-04-28T23:20:40.274Z,24.50
2019-04-28T23:23:09.847Z,23.53
2019-04-28T23:25:39.266Z,24.70
2019-04-28T23:28:08.858Z,23.67
2019-04-28T23:30:42.133Z,24.43
2019-04-28T23:33:11.647Z,23.77
2019-04-28T23:35:41.254Z,24.43
2019-04-28T23:38:10.687Z,25.77
2019-04-28T23:40:45.729Z,25.40
2019-04-28T23:43:19.061Z,25.93
2019-04-28T23:45:48.816Z,25.00
2019-04-28T23:48:18.217Z,26.73
2019-04-28T23:50:59.036Z,26.73
2019-04-28T23:53:56.459Z,25.20
2019-04-28T23:56:26.036Z,26.93
2019-04-28T23:58:55.651Z,25.10
